Time;durP1;ratioP1;P1;durP2;ratioP2;P2;SDS_P1;SDS_P2;PMS_P1;PMS_P2;Temp;Humidity;BMP_temperature;BMP_pressure;BME280_temperature;BME280_humidity;BME280_pressure;Samples;Min_cycle;Max_cycle;Signal;HPM_P1;HPM_P2
2021/12/09 05:02:29;;;;;;;36.53;19.17;;;1.70;99.90;;;;;;5086705;23;20684;-70
2021/12/09 05:04:56;;;;;;;40.63;18.38;;;1.70;99.90;;;;;;4970569;28;20641;-70
2021/12/09 05:07:23;;;;;;;55.95;21.75;;;1.70;99.90;;;;;;4970172;28;20294;-70
2021/12/09 05:09:51;;;;;;;34.80;17.75;;;1.70;99.90;;;;;;4970528;28;20217;-70
2021/12/09 05:12:21;;;;;;;41.83;20.05;;;1.70;99.90;;;;;;4953206;28;20308;-70
2021/12/09 05:14:48;;;;;;;43.35;21.50;;;1.70;99.90;;;;;;4951581;29;20221;-69
2021/12/09 05:17:15;;;;;;;53.75;21.77;;;1.70;99.90;;;;;;4965662;28;20986;-69
2021/12/09 05:19:44;;;;;;;47.60;22.08;;;1.70;99.90;;;;;;4971418;28;20205;-70
2021/12/09 05:22:11;;;;;;;46.05;24.33;;;1.70;99.90;;;;;;4953584;29;20283;-70
2021/12/09 05:24:39;;;;;;;56.30;24.02;;;1.70;99.90;;;;;;4954705;29;20212;-70
2021/12/09 05:27:08;;;;;;;44.33;23.38;;;1.70;99.90;;;;;;4953956;29;20248;-70
2021/12/09 05:29:39;;;;;;;37.08;19.90;;;1.70;99.90;;;;;;4954131;29;20737;-70
2021/12/09 05:32:10;;;;;;;63.20;23.55;;;1.70;99.90;;;;;;4953265;29;20232;-69
2021/12/09 05:34:38;;;;;;;42.97;18.42;;;1.70;99.90;;;;;;4954139;29;20237;-69
2021/12/09 05:37:08;;;;;;;48.45;21.08;;;1.70;99.90;;;;;;4954048;29;20205;-69
2021/12/09 05:39:37;;;;;;;48.65;23.55;;;1.70;99.90;;;;;;4954156;29;20292;-69
2021/12/09 05:42:04;;;;;;;44.65;21.92;;;1.70;99.90;;;;;;4959294;28;20320;-70
2021/12/09 05:44:32;;;;;;;42.80;18.50;;;1.70;99.90;;;;;;4958460;28;20686;-69
2021/12/09 05:47:02;;;;;;;33.15;15.20;;;1.70;99.90;;;;;;4953248;28;20224;-69
2021/12/09 05:49:29;;;;;;;51.20;22.67;;;1.70;99.90;;;;;;4972519;28;20291;-70
2021/12/09 05:51:56;;;;;;;51.83;25.15;;;1.60;99.90;;;;;;4964405;28;20307;-69
2021/12/09 05:54:24;;;;;;;51.70;23.52;;;1.70;99.90;;;;;;4954014;29;20244;-69
2021/12/09 05:56:51;;;;;;;45.58;23.75;;;1.70;99.90;;;;;;4953941;29;20202;-70
2021/12/09 05:59:18;;;;;;;48.33;24.60;;;1.70;99.90;;;;;;4953675;29;20201;-69
2021/12/09 06:01:44;;;;;;;53.25;24.20;;;1.70;99.90;;;;;;4952359;29;20236;-69
2021/12/09 06:04:12;;;;;;;43.20;21.05;;;1.70;99.90;;;;;;4955143;28;20342;-70
2021/12/09 06:06:40;;;;;;;49.67;22.60;;;1.70;99.90;;;;;;4959738;28;20300;-70
2021/12/09 06:09:09;;;;;;;52.15;23.73;;;1.70;99.90;;;;;;4959396;28;20227;-69
2021/12/09 06:11:37;;;;;;;41.88;18.58;;;1.70;99.90;;;;;;4970254;28;20310;-69
2021/12/09 06:14:05;;;;;;;49.72;22.80;;;1.60;99.90;;;;;;4972631;28;20205;-70
2021/12/09 06:16:32;;;;;;;50.35;22.73;;;1.60;99.90;;;;;;4971507;28;20645;-69
2021/12/09 06:18:59;;;;;;;54.72;23.48;;;1.60;99.90;;;;;;4972187;28;20209;-69
2021/12/09 06:21:27;;;;;;;40.03;21.60;;;1.70;99.90;;;;;;4960583;28;20229;-70
2021/12/09 06:23:54;;;;;;;50.10;25.10;;;1.70;99.90;;;;;;4953528;29;20210;-68
2021/12/09 06:26:22;;;;;;;40.50;20.10;;;1.70;99.90;;;;;;4961417;28;20205;-69
2021/12/09 06:28:50;;;;;;;46.22;23.55;;;1.70;99.90;;;;;;4953298;28;20206;-69
2021/12/09 06:31:17;;;;;;;45.60;23.58;;;1.70;99.90;;;;;;4951328;28;20287;-69
2021/12/09 06:33:44;;;;;;;43.60;20.13;;;1.70;99.90;;;;;;4956959;28;20212;-68
2021/12/09 06:36:10;;;;;;;49.33;22.48;;;1.70;99.90;;;;;;4955786;28;20213;-68
2021/12/09 06:38:37;;;;;;;47.60;22.33;;;1.60;99.90;;;;;;4957817;28;20216;-69
2021/12/09 06:41:04;;;;;;;41.25;19.92;;;1.70;99.90;;;;;;4959851;28;20251;-69
2021/12/09 06:43:31;;;;;;;51.20;26.50;;;1.60;99.90;;;;;;4964347;28;20288;-69
2021/12/09 06:45:59;;;;;;;40.33;19.15;;;1.60;99.90;;;;;;4962644;28;20217;-69
2021/12/09 06:48:26;;;;;;;52.53;23.88;;;1.60;99.90;;;;;;4969660;28;20275;-69
2021/12/09 06:50:53;;;;;;;55.85;25.00;;;1.60;99.90;;;;;;4953423;28;20288;-69
2021/12/09 06:53:20;;;;;;;44.42;21.17;;;1.60;99.90;;;;;;4952991;29;20220;-68
2021/12/09 06:55:46;;;;;;;48.75;25.23;;;1.60;99.90;;;;;;4953061;28;20230;-69
2021/12/09 06:58:13;;;;;;;45.85;23.20;;;1.60;99.90;;;;;;4960102;28;20563;-69
2021/12/09 07:00:45;;;;;;;50.20;23.95;;;1.60;99.90;;;;;;4966039;28;20639;-69
2021/12/09 07:03:14;;;;;;;54.08;24.98;;;1.60;99.90;;;;;;4953107;28;20737;-68
2021/12/09 07:05:40;;;;;;;52.58;22.88;;;1.60;99.90;;;;;;4952865;28;20209;-68
2021/12/09 07:08:07;;;;;;;44.75;22.95;;;1.60;99.90;;;;;;4970113;28;20228;-69
2021/12/09 07:10:34;;;;;;;51.10;25.20;;;1.70;99.90;;;;;;4965623;28;20235;-69
2021/12/09 07:13:01;;;;;;;45.95;22.70;;;1.70;99.90;;;;;;4963752;28;20197;-69
2021/12/09 07:15:28;;;;;;;51.22;23.25;;;1.70;99.90;;;;;;4970970;28;20677;-68
2021/12/09 07:17:55;;;;;;;49.00;23.25;;;1.70;99.90;;;;;;4955773;28;20213;-68
2021/12/09 07:20:24;;;;;;;54.30;21.67;;;1.70;99.90;;;;;;4956242;28;20216;-68
2021/12/09 07:22:51;;;;;;;47.30;22.63;;;1.60;99.90;;;;;;4952473;28;20228;-68
2021/12/09 07:25:20;;;;;;;52.28;24.20;;;1.60;99.90;;;;;;4964636;28;20216;-68
2021/12/09 07:27:47;;;;;;;49.22;22.00;;;1.60;99.90;;;;;;4955261;28;20236;-68
2021/12/09 07:30:16;;;;;;;56.05;23.70;;;1.60;99.90;;;;;;4964890;28;20712;-69
2021/12/09 07:32:43;;;;;;;56.85;25.00;;;1.60;99.90;;;;;;4956562;28;20580;-69
2021/12/09 07:35:11;;;;;;;56.17;25.80;;;1.60;99.90;;;;;;4969493;28;20204;-69
2021/12/09 07:37:40;;;;;;;47.67;24.58;;;1.60;99.90;;;;;;4961014;28;20279;-69
2021/12/09 07:40:08;;;;;;;49.05;23.00;;;1.60;99.90;;;;;;4965715;28;20207;-69
2021/12/09 07:42:36;;;;;;;48.28;25.33;;;1.60;99.90;;;;;;4960605;28;20232;-69
2021/12/09 07:45:04;;;;;;;52.28;25.25;;;1.60;99.90;;;;;;4959541;28;20212;-69
2021/12/09 07:47:31;;;;;;;52.63;23.70;;;1.60;99.90;;;;;;4961601;28;20225;-69
2021/12/09 07:49:57;;;;;;;51.67;25.33;;;1.60;99.90;;;;;;4952739;28;20236;-68
2021/12/09 07:52:24;;;;;;;57.90;25.52;;;1.60;99.90;;;;;;4958995;28;20573;-68
2021/12/09 07:54:52;;;;;;;66.00;23.55;;;1.70;99.90;;;;;;4954846;28;20559;-69
2021/12/09 07:57:19;;;;;;;51.92;25.85;;;1.70;99.90;;;;;;4955826;28;20260;-69
2021/12/09 07:59:46;;;;;;;46.63;21.63;;;1.70;99.90;;;;;;4958740;28;20739;-69
2021/12/09 08:02:13;;;;;;;45.30;21.77;;;1.60;99.90;;;;;;4960878;28;20236;-69
2021/12/09 08:04:39;;;;;;;49.75;24.30;;;1.60;99.90;;;;;;4955526;28;20256;-69
2021/12/09 08:07:06;;;;;;;33.65;16.00;;;1.60;99.90;;;;;;4951960;28;20205;-68
2021/12/09 08:09:33;;;;;;;58.05;24.88;;;1.60;99.90;;;;;;4966464;28;20295;-69
2021/12/09 08:12:01;;;;;;;40.83;22.30;;;1.60;99.90;;;;;;4959510;28;20645;-68
2021/12/09 08:14:28;;;;;;;43.05;21.05;;;1.70;99.90;;;;;;4955181;28;20217;-68
2021/12/09 08:17:10;;;;;;;55.35;25.17;;;1.60;99.90;;;;;;4958476;28;20276;-69
2021/12/09 08:19:37;;;;;;;58.55;26.63;;;1.70;99.90;;;;;;4957616;28;20205;-69
2021/12/09 08:22:04;;;;;;;58.50;25.25;;;1.70;99.90;;;;;;4958228;28;20761;-69
2021/12/09 08:24:31;;;;;;;54.42;23.35;;;1.70;99.90;;;;;;4961634;28;20205;-69
2021/12/09 08:26:58;;;;;;;56.92;25.45;;;1.70;99.90;;;;;;4949849;28;20209;-69
2021/12/09 08:29:26;;;;;;;46.40;18.77;;;1.70;99.90;;;;;;4963672;28;20670;-70
2021/12/09 08:31:52;;;;;;;46.38;21.40;;;1.70;99.90;;;;;;4960279;28;20327;-69
2021/12/09 08:34:19;;;;;;;49.55;21.60;;;1.70;99.90;;;;;;4961663;28;20908;-69
2021/12/09 08:36:46;;;;;;;57.95;25.08;;;1.70;99.90;;;;;;4957833;28;20209;-69
2021/12/09 08:39:12;;;;;;;58.45;26.13;;;1.70;99.90;;;;;;4964856;28;20406;-69
2021/12/09 08:41:40;;;;;;;55.28;24.58;;;1.80;99.90;;;;;;4966525;28;20278;-69
2021/12/09 08:44:07;;;;;;;50.40;23.30;;;1.80;99.90;;;;;;4953464;28;20209;-69
2021/12/09 08:46:37;;;;;;;63.10;28.08;;;1.80;99.90;;;;;;4950377;28;20305;-69
2021/12/09 08:49:04;;;;;;;49.33;24.83;;;1.80;99.90;;;;;;4951165;29;20312;-70
2021/12/09 08:51:31;;;;;;;49.75;24.42;;;1.80;99.90;;;;;;4955470;28;20605;-68
2021/12/09 08:53:58;;;;;;;57.85;29.77;;;1.80;99.90;;;;;;4961806;28;20212;-70
2021/12/09 08:56:25;;;;;;;47.55;24.15;;;1.80;99.90;;;;;;4954296;28;20229;-69
2021/12/09 08:58:52;;;;;;;29.33;14.13;;;1.90;99.90;;;;;;4954716;29;20210;-69
2021/12/09 09:01:19;;;;;;;22.13;11.35;;;1.80;99.90;;;;;;4953264;29;20757;-69
2021/12/09 09:03:47;;;;;;;53.90;25.85;;;1.80;99.90;;;;;;4954748;29;20212;-69
2021/12/09 09:06:14;;;;;;;49.55;21.55;;;1.80;99.90;;;;;;4954488;29;20683;-69
2021/12/09 09:08:40;;;;;;;51.35;21.95;;;1.80;99.90;;;;;;4971869;28;20645;-69
2021/12/09 09:11:07;;;;;;;39.95;16.00;;;1.80;99.90;;;;;;4973455;28;20236;-69
2021/12/09 09:13:35;;;;;;;43.75;23.77;;;1.80;99.90;;;;;;4973724;28;20549;-70
2021/12/09 09:16:01;;;;;;;51.30;25.52;;;1.80;99.90;;;;;;4973054;28;20208;-69
2021/12/09 09:18:28;;;;;;;36.15;17.88;;;1.80;99.90;;;;;;4957192;28;20206;-69
2021/12/09 09:20:56;;;;;;;56.80;24.70;;;1.80;99.90;;;;;;4954245;28;20233;-69
2021/12/09 09:23:23;;;;;;;51.08;22.48;;;1.80;99.90;;;;;;4971485;28;20505;-69
2021/12/09 09:25:51;;;;;;;34.53;18.00;;;1.80;99.90;;;;;;4973492;28;20607;-69
2021/12/09 09:28:18;;;;;;;56.58;24.30;;;1.80;99.90;;;;;;4973859;28;20248;-69
2021/12/09 09:30:53;;;;;;;45.92;24.17;;;1.80;99.90;;;;;;4972509;28;20236;-69
2021/12/09 09:33:21;;;;;;;33.47;15.63;;;1.80;99.90;;;;;;4973642;28;20277;-69
2021/12/09 09:35:48;;;;;;;44.45;20.85;;;1.80;99.90;;;;;;4969639;28;20666;-69
2021/12/09 09:38:18;;;;;;;42.17;23.00;;;1.80;99.90;;;;;;4954073;29;20209;-69
2021/12/09 09:40:50;;;;;;;41.08;21.83;;;1.80;99.90;;;;;;4954140;29;20236;-69
2021/12/09 09:46:05;;;;;;;51.17;18.92;;;1.80;99.90;;;;;;4972359;28;20212;-69
2021/12/09 09:48:32;;;;;;;46.40;23.05;;;1.80;99.90;;;;;;4966354;28;21703;-69
2021/12/09 09:51:00;;;;;;;49.47;21.58;;;1.80;99.90;;;;;;4953461;28;20766;-69
2021/12/09 09:53:28;;;;;;;40.42;18.92;;;1.80;99.90;;;;;;4954172;28;20276;-69
2021/12/09 09:55:55;;;;;;;52.78;27.08;;;1.80;99.90;;;;;;4956387;28;20645;-69
2021/12/09 09:58:23;;;;;;;49.53;22.50;;;1.90;99.90;;;;;;4968398;28;20211;-69
2021/12/09 10:00:50;;;;;;;28.15;16.55;;;1.80;99.90;;;;;;4971884;28;20240;-69
2021/12/09 10:03:17;;;;;;;35.17;18.30;;;1.80;99.90;;;;;;4972886;28;20208;-69
2021/12/09 10:05:47;;;;;;;48.13;21.42;;;1.80;99.90;;;;;;4972935;28;20212;-69
2021/12/09 10:08:15;;;;;;;27.80;15.57;;;1.80;99.90;;;;;;4972316;28;20240;-69
2021/12/09 10:10:45;;;;;;;58.38;26.00;;;1.80;99.90;;;;;;4972484;28;20346;-69
2021/12/09 10:13:14;;;;;;;58.75;27.77;;;1.80;99.90;;;;;;4972773;28;20216;-69
2021/12/09 10:15:45;;;;;;;63.90;25.88;;;1.90;99.90;;;;;;4971879;28;20244;-69
2021/12/09 10:18:12;;;;;;;58.53;25.42;;;1.90;99.90;;;;;;4961933;28;20729;-69
2021/12/09 10:20:48;;;;;;;59.42;26.75;;;1.90;99.90;;;;;;4952975;29;20311;-70
2021/12/09 10:23:31;;;;;;;44.70;23.38;;;1.90;99.90;;;;;;4953176;29;20220;-69
2021/12/09 10:26:17;;;;;;;53.25;24.15;;;1.90;99.90;;;;;;4953090;29;20712;-71
2021/12/09 10:28:50;;;;;;;42.53;18.23;;;1.90;99.90;;;;;;4967566;28;20232;-70
2021/12/09 10:31:19;;;;;;;58.67;22.67;;;2.00;99.90;;;;;;4971509;28;20236;-69
2021/12/09 10:34:13;;;;;;;58.20;25.48;;;1.90;99.90;;;;;;4972372;28;20208;-70
2021/12/09 10:36:47;;;;;;;39.28;19.45;;;1.90;99.90;;;;;;4972206;28;20212;-69
2021/12/09 10:39:27;;;;;;;54.95;26.25;;;1.90;99.90;;;;;;4971363;28;20209;-69
2021/12/09 10:41:57;;;;;;;53.55;25.25;;;1.90;99.90;;;;;;4972085;28;20224;-69
2021/12/09 10:44:36;;;;;;;66.65;30.88;;;1.90;99.90;;;;;;4972417;28;20225;-69
2021/12/09 10:47:13;;;;;;;57.42;26.33;;;1.90;99.90;;;;;;4970436;28;20208;-69
2021/12/09 10:49:47;;;;;;;58.60;25.92;;;1.90;99.90;;;;;;4972024;28;20592;-69
2021/12/09 10:52:27;;;;;;;58.10;29.42;;;1.90;99.90;;;;;;4971687;28;20232;-69
2021/12/09 10:54:55;;;;;;;54.00;28.05;;;2.00;99.90;;;;;;4972152;28;20208;-69
2021/12/09 10:57:32;;;;;;;56.97;28.23;;;2.00;99.90;;;;;;4968819;28;20264;-69
2021/12/09 11:00:17;;;;;;;55.00;27.65;;;2.10;99.90;;;;;;4958283;28;20259;-69
2021/12/09 11:02:58;;;;;;;65.80;28.85;;;2.10;99.90;;;;;;4951443;29;20213;-70
2021/12/09 11:05:25;;;;;;;63.78;27.02;;;2.10;99.90;;;;;;4952125;29;20693;-69
2021/12/09 11:07:52;;;;;;;59.30;26.63;;;2.10;99.90;;;;;;4951798;29;20202;-69
2021/12/09 11:10:22;;;;;;;63.55;28.63;;;2.20;99.90;;;;;;4951844;29;20648;-69
2021/12/09 11:12:52;;;;;;;64.57;27.45;;;2.20;99.90;;;;;;4951462;29;20209;-69
2021/12/09 11:15:20;;;;;;;69.00;31.58;;;2.20;99.90;;;;;;4952235;29;20221;-69
2021/12/09 11:17:50;;;;;;;57.83;27.40;;;2.30;99.90;;;;;;4951008;28;20259;-70
2021/12/09 11:20:44;;;;;;;59.08;26.77;;;2.30;99.90;;;;;;4951824;29;20205;-69
2021/12/09 11:23:33;;;;;;;56.08;26.52;;;2.30;99.90;;;;;;4952004;28;20220;-69
2021/12/09 11:26:31;;;;;;;58.72;27.48;;;2.30;99.90;;;;;;4952212;29;20209;-69
2021/12/09 11:29:05;;;;;;;55.75;25.52;;;2.30;99.90;;;;;;4951486;28;20228;-69
2021/12/09 11:31:34;;;;;;;60.45;27.23;;;2.40;99.90;;;;;;4950515;28;20251;-70
2021/12/09 11:34:08;;;;;;;69.00;31.10;;;2.50;99.90;;;;;;4952235;29;20209;-69
2021/12/09 11:36:56;;;;;;;65.78;29.45;;;2.50;99.90;;;;;;4953311;28;20596;-69
2021/12/09 11:39:32;;;;;;;61.85;29.10;;;2.60;99.90;;;;;;4959374;28;20592;-69
2021/12/09 11:42:16;;;;;;;59.28;28.98;;;2.50;99.90;;;;;;4952840;28;20224;-69
2021/12/09 11:44:49;;;;;;;67.93;31.75;;;2.60;99.90;;;;;;4968436;28;20633;-69
2021/12/09 11:47:17;;;;;;;64.25;27.05;;;2.60;99.90;;;;;;4961890;28;20197;-69
2021/12/09 11:49:44;;;;;;;63.47;26.80;;;2.60;99.90;;;;;;4969391;28;20220;-69
2021/12/09 11:52:12;;;;;;;62.15;28.00;;;2.50;99.90;;;;;;4952143;28;20221;-69
2021/12/09 11:54:40;;;;;;;57.83;26.33;;;2.50;99.90;;;;;;4960080;28;20525;-69
2021/12/09 11:57:18;;;;;;;66.10;26.55;;;2.50;99.90;;;;;;4969961;28;20212;-70
2021/12/09 12:11:43;;;;;;;65.40;28.52;;;2.60;99.90;;;;;;4943406;28;20228;-70
2021/12/09 12:14:32;;;;;;;77.82;31.17;;;2.60;99.90;;;;;;4957228;28;20227;-69
2021/12/09 12:17:11;;;;;;;61.90;33.17;;;2.70;99.90;;;;;;4957895;28;20288;-69
2021/12/09 12:20:10;;;;;;;61.90;26.73;;;2.70;99.90;;;;;;4952428;28;20292;-69
2021/12/09 12:26:11;;;;;;;73.95;29.85;;;2.70;99.90;;;;;;4960252;28;20207;-69
2021/12/09 12:28:54;;;;;;;69.30;30.30;;;2.60;99.90;;;;;;4969495;28;20228;-70
2021/12/09 12:37:52;;;;;;;48.38;22.35;;;2.60;99.90;;;;;;4946202;28;20295;-69
2021/12/09 12:40:22;;;;;;;65.80;25.98;;;2.50;99.90;;;;;;4954672;29;20284;-69
2021/12/09 12:42:56;;;;;;;64.97;30.83;;;2.40;99.90;;;;;;4955350;28;20304;-69
2021/12/09 12:45:48;;;;;;;69.10;28.15;;;2.40;99.90;;;;;;4954422;29;20219;-69
2021/12/09 12:48:55;;;;;;;69.43;30.25;;;2.50;99.90;;;;;;4962662;28;20232;-69
2021/12/09 12:51:28;;;;;;;60.08;28.15;;;2.50;99.90;;;;;;4954443;29;20291;-70
2021/12/09 12:53:59;;;;;;;63.70;28.85;;;2.50;99.90;;;;;;4954719;29;20210;-69
2021/12/09 12:56:30;;;;;;;58.90;28.52;;;2.50;99.90;;;;;;4954511;29;20220;-70
2021/12/09 12:59:22;;;;;;;74.50;29.20;;;2.60;99.90;;;;;;4973334;28;20205;-70
2021/12/09 13:02:38;;;;;;;69.60;28.00;;;2.60;99.90;;;;;;4971251;28;20236;-69
2021/12/09 13:05:25;;;;;;;64.95;30.05;;;2.50;99.90;;;;;;4954446;29;20921;-70
2021/12/09 13:08:25;;;;;;;63.25;28.25;;;2.50;99.90;;;;;;4961114;28;20200;-70
2021/12/09 13:11:08;;;;;;;62.13;27.80;;;2.60;99.90;;;;;;4953671;28;20325;-70
2021/12/09 13:13:43;;;;;;;67.95;29.92;;;2.60;99.90;;;;;;4968432;28;20681;-70
2021/12/09 13:16:16;;;;;;;72.78;31.27;;;2.60;99.90;;;;;;4963684;28;20579;-70
2021/12/09 13:18:59;;;;;;;62.45;26.27;;;2.60;99.90;;;;;;4968782;28;20204;-70
2021/12/09 13:21:42;;;;;;;77.13;30.63;;;2.60;99.90;;;;;;4963919;28;20233;-70
2021/12/09 13:24:42;;;;;;;73.78;30.65;;;2.60;99.90;;;;;;4954207;29;20216;-70
2021/12/09 13:30:16;;;;;;;68.32;24.33;;;2.50;99.90;;;;;;4968494;28;20216;-69
2021/12/09 13:32:59;;;;;;;47.75;24.45;;;2.50;99.90;;;;;;4960453;28;20205;-69
2021/12/09 13:35:37;;;;;;;58.20;27.15;;;2.40;99.90;;;;;;4955555;28;20213;-69
2021/12/09 13:38:30;;;;;;;68.05;29.73;;;2.40;99.90;;;;;;4956103;28;20312;-70
2021/12/09 13:46:56;;;;;;;71.20;29.92;;;2.50;99.90;;;;;;4959119;28;20680;-70
2021/12/09 13:49:36;;;;;;;45.65;21.85;;;2.50;99.90;;;;;;4953475;29;20225;-69
2021/12/09 13:54:54;;;;;;;76.25;34.03;;;2.50;99.90;;;;;;4970986;28;20215;-70
2021/12/09 13:57:31;;;;;;;66.40;29.73;;;2.60;99.90;;;;;;4972651;28;20695;-70
2021/12/09 13:59:57;;;;;;;65.13;30.23;;;2.60;99.90;;;;;;4972586;28;20776;-70
2021/12/09 14:02:26;;;;;;;65.03;32.65;;;2.60;99.90;;;;;;4960266;28;20237;-70
2021/12/09 14:04:53;;;;;;;60.25;30.15;;;2.50;99.90;;;;;;4953515;28;20244;-69
2021/12/09 14:07:27;;;;;;;76.72;29.60;;;2.50;99.90;;;;;;4964075;28;20686;-69
2021/12/09 14:09:58;;;;;;;64.32;29.45;;;2.50;99.90;;;;;;4969809;28;20300;-69
2021/12/09 14:12:30;;;;;;;59.95;24.63;;;2.50;99.90;;;;;;4964473;28;20221;-70
2021/12/09 14:15:05;;;;;;;51.95;21.88;;;2.50;99.90;;;;;;4954131;28;20212;-70
2021/12/09 14:17:32;;;;;;;64.30;28.08;;;2.50;99.90;;;;;;4953328;28;20205;-70
2021/12/09 14:20:01;;;;;;;55.22;23.77;;;2.50;99.90;;;;;;4963356;28;20209;-70
2021/12/09 14:22:31;;;;;;;71.57;33.08;;;2.40;99.90;;;;;;4972600;28;20232;-70
2021/12/09 14:25:01;;;;;;;73.75;31.20;;;2.40;99.90;;;;;;4967221;28;20542;-69
2021/12/09 14:27:29;;;;;;;72.53;32.53;;;2.40;99.90;;;;;;4953178;28;20511;-69
2021/12/09 14:29:58;;;;;;;71.70;31.95;;;2.50;99.90;;;;;;4961901;28;20720;-69
2021/12/09 14:32:27;;;;;;;74.82;34.25;;;2.50;99.90;;;;;;4953296;28;20303;-70
2021/12/09 14:34:56;;;;;;;72.15;34.95;;;2.50;99.90;;;;;;4953263;28;20213;-70
2021/12/09 14:37:24;;;;;;;69.93;30.90;;;2.60;99.90;;;;;;4969052;28;20201;-70
2021/12/09 14:40:01;;;;;;;56.55;26.50;;;2.50;99.90;;;;;;4956722;28;20666;-69
2021/12/09 14:42:31;;;;;;;66.28;31.88;;;2.50;99.90;;;;;;4952649;29;20752;-70
2021/12/09 14:45:00;;;;;;;76.10;34.38;;;2.50;99.90;;;;;;4958050;28;20208;-69
2021/12/09 14:47:27;;;;;;;67.93;30.92;;;2.50;99.90;;;;;;4952906;28;20216;-70
2021/12/09 14:49:57;;;;;;;68.80;30.00;;;2.50;99.90;;;;;;4970283;28;20884;-69
2021/12/09 14:52:32;;;;;;;69.53;32.08;;;2.50;99.90;;;;;;4955228;28;20229;-70
2021/12/09 14:55:17;;;;;;;63.72;30.42;;;2.40;99.90;;;;;;4958143;28;20284;-70
2021/12/09 14:58:03;;;;;;;72.35;30.05;;;2.40;99.90;;;;;;4952669;28;20201;-70
2021/12/09 15:00:43;;;;;;;57.78;27.25;;;2.50;99.90;;;;;;4960954;28;20566;-70
2021/12/09 15:03:13;;;;;;;69.30;32.05;;;2.40;99.90;;;;;;4967310;28;20200;-70
2021/12/09 15:05:58;;;;;;;70.65;31.02;;;2.40;99.90;;;;;;4952612;28;20359;-70
2021/12/09 15:08:26;;;;;;;65.72;29.40;;;2.40;99.90;;;;;;4961112;28;20245;-70
2021/12/09 15:10:55;;;;;;;65.53;23.52;;;2.40;99.90;;;;;;4951811;28;20641;-69
2021/12/09 15:13:25;;;;;;;66.63;26.88;;;2.40;99.90;;;;;;4954965;28;20208;-69
2021/12/09 15:16:03;;;;;;;34.20;17.40;;;2.40;99.90;;;;;;4958511;28;20245;-70
2021/12/09 15:18:31;;;;;;;69.82;29.27;;;2.30;99.90;;;;;;4970231;28;20204;-69
2021/12/09 15:21:08;;;;;;;80.07;30.10;;;2.30;99.90;;;;;;4965758;28;20213;-70
2021/12/09 15:23:44;;;;;;;48.40;23.58;;;2.30;99.90;;;;;;4952185;28;20307;-70
2021/12/09 15:26:20;;;;;;;54.30;21.33;;;2.30;99.90;;;;;;4958610;28;20209;-69
2021/12/09 15:29:01;;;;;;;52.50;25.30;;;2.30;99.90;;;;;;4951963;28;20511;-70
2021/12/09 15:31:28;;;;;;;48.45;22.75;;;2.20;99.90;;;;;;4952082;28;20599;-70
2021/12/09 15:33:55;;;;;;;65.45;26.45;;;2.20;99.90;;;;;;4951766;28;20205;-70
2021/12/09 15:36:25;;;;;;;59.35;27.88;;;2.20;99.90;;;;;;4970665;28;20291;-70
2021/12/09 15:39:00;;;;;;;51.30;20.00;;;2.30;99.90;;;;;;4955574;28;20292;-70
2021/12/09 15:41:30;;;;;;;40.17;17.02;;;2.20;99.90;;;;;;4951951;28;20300;-70
2021/12/09 15:44:11;;;;;;;90.70;35.63;;;2.30;99.90;;;;;;4951371;28;20217;-70
2021/12/09 15:46:48;;;;;;;68.85;32.30;;;2.30;99.90;;;;;;4955070;28;20232;-70
2021/12/09 15:49:17;;;;;;;70.13;30.60;;;2.30;99.90;;;;;;4961059;28;20201;-70
2021/12/09 15:51:47;;;;;;;71.53;33.85;;;2.30;99.90;;;;;;4950818;28;20248;-70
2021/12/09 15:54:15;;;;;;;89.30;39.53;;;2.30;99.90;;;;;;4959002;28;20197;-70
2021/12/09 15:56:46;;;;;;;83.00;37.92;;;2.30;99.90;;;;;;4964712;28;20201;-70
2021/12/09 15:59:17;;;;;;;87.85;37.70;;;2.30;99.90;;;;;;4961167;28;20205;-70
2021/12/09 16:01:46;;;;;;;81.55;34.22;;;2.30;99.90;;;;;;4959745;28;20714;-70
2021/12/09 16:04:14;;;;;;;70.22;32.22;;;2.40;99.90;;;;;;4966481;28;20275;-70
2021/12/09 16:06:43;;;;;;;80.35;37.58;;;2.40;99.90;;;;;;4968072;28;20647;-70
2021/12/09 16:09:13;;;;;;;82.32;34.55;;;2.40;99.90;;;;;;4969854;28;20208;-70
2021/12/09 16:11:40;;;;;;;71.10;36.28;;;2.40;99.90;;;;;;4964217;28;20229;-69
2021/12/09 16:14:07;;;;;;;80.85;34.80;;;2.40;99.90;;;;;;4959889;28;20207;-70
2021/12/09 16:16:38;;;;;;;68.78;28.90;;;2.40;99.90;;;;;;4953200;28;20208;-70
2021/12/09 16:19:05;;;;;;;68.18;27.95;;;2.40;99.90;;;;;;4954752;28;20387;-70
2021/12/09 16:21:44;;;;;;;73.70;28.33;;;2.30;99.90;;;;;;4951899;28;20250;-70
2021/12/09 16:24:12;;;;;;;74.25;28.70;;;2.30;99.90;;;;;;4950980;28;20276;-70
2021/12/09 16:26:39;;;;;;;71.57;26.55;;;2.30;99.90;;;;;;4950855;28;20220;-70
2021/12/09 16:29:06;;;;;;;69.55;31.45;;;2.30;99.90;;;;;;4950903;28;20216;-70
2021/12/09 16:31:33;;;;;;;73.55;32.70;;;2.30;99.90;;;;;;4949801;28;20228;-70
2021/12/09 16:34:01;;;;;;;61.78;30.02;;;2.30;99.90;;;;;;4951655;28;20236;-70
2021/12/09 16:36:27;;;;;;;73.45;32.08;;;2.40;99.90;;;;;;4961192;28;20213;-70
2021/12/09 16:38:54;;;;;;;75.97;32.35;;;2.40;99.90;;;;;;4967286;28;20251;-70
2021/12/09 16:41:21;;;;;;;73.03;31.45;;;2.40;99.90;;;;;;4950201;28;20228;-70
2021/12/09 16:43:47;;;;;;;71.40;30.95;;;2.40;99.90;;;;;;4950953;28;20217;-70
2021/12/09 16:46:14;;;;;;;66.43;29.80;;;2.40;99.90;;;;;;4950358;28;20209;-70
2021/12/09 16:48:45;;;;;;;61.95;30.00;;;2.40;99.90;;;;;;4950859;28;20201;-70
2021/12/09 16:51:15;;;;;;;77.45;35.00;;;2.40;99.90;;;;;;4950834;28;20237;-70
2021/12/09 16:53:48;;;;;;;67.57;32.17;;;2.30;99.90;;;;;;4951685;28;20205;-70
2021/12/09 16:56:38;;;;;;;76.25;33.08;;;2.30;99.90;;;;;;4955147;28;20208;-70
2021/12/09 16:59:18;;;;;;;77.95;35.10;;;2.40;99.90;;;;;;4969569;28;20299;-71
2021/12/09 17:01:45;;;;;;;71.18;32.28;;;2.40;99.90;;;;;;4959793;28;20320;-70
2021/12/09 17:04:12;;;;;;;74.60;34.50;;;2.40;99.90;;;;;;4964906;28;20204;-70
2021/12/09 17:06:40;;;;;;;76.85;36.25;;;2.40;99.90;;;;;;4952397;28;20205;-69
2021/12/09 17:09:07;;;;;;;88.55;36.53;;;2.40;99.90;;;;;;4963842;28;20212;-69
2021/12/09 17:11:35;;;;;;;81.70;40.13;;;2.40;99.90;;;;;;4962025;28;20237;-69
2021/12/09 17:14:04;;;;;;;70.50;31.60;;;2.50;99.90;;;;;;4962825;28;20588;-69
2021/12/09 17:16:31;;;;;;;68.30;33.10;;;2.40;99.90;;;;;;4958253;28;20819;-69
2021/12/09 17:18:58;;;;;;;78.35;39.45;;;2.50;99.90;;;;;;4965167;28;20208;-70
2021/12/09 17:21:25;;;;;;;80.88;36.50;;;2.50;99.90;;;;;;4967494;28;20296;-69
2021/12/09 17:23:53;;;;;;;79.13;31.25;;;2.50;99.90;;;;;;4955543;28;20275;-69
2021/12/09 17:26:20;;;;;;;75.55;31.98;;;2.50;99.90;;;;;;4958766;28;20209;-69
2021/12/09 17:28:47;;;;;;;73.72;29.60;;;2.40;99.90;;;;;;4970475;28;20212;-69
2021/12/09 17:31:16;;;;;;;73.53;34.47;;;2.40;99.90;;;;;;4969945;28;20239;-69
2021/12/09 17:33:42;;;;;;;70.15;32.30;;;2.40;99.90;;;;;;4954381;28;20205;-69
2021/12/09 17:36:09;;;;;;;77.15;32.38;;;2.40;99.90;;;;;;4953814;28;20213;-69
2021/12/09 17:38:36;;;;;;;73.93;35.00;;;2.40;99.90;;;;;;4955286;28;20208;-70
2021/12/09 17:41:04;;;;;;;80.30;34.63;;;2.40;99.90;;;;;;4954975;28;20226;-69
2021/12/09 17:43:31;;;;;;;78.07;31.65;;;2.40;99.90;;;;;;4961081;28;20213;-69
2021/12/09 17:45:58;;;;;;;74.75;31.80;;;2.40;99.90;;;;;;4972167;28;20204;-69
2021/12/09 17:48:25;;;;;;;74.78;31.25;;;2.40;99.90;;;;;;4965747;28;20600;-69
2021/12/09 17:50:59;;;;;;;88.13;35.83;;;2.40;99.90;;;;;;4966508;28;20330;-70
2021/12/09 17:53:26;;;;;;;79.03;34.03;;;2.40;99.90;;;;;;4972665;28;20216;-71
2021/12/09 17:55:54;;;;;;;79.07;35.50;;;2.40;99.90;;;;;;4963543;28;20339;-71
2021/12/09 17:58:24;;;;;;;74.07;33.70;;;2.50;99.90;;;;;;4960365;28;20296;-69
2021/12/09 18:00:52;;;;;;;85.18;38.38;;;2.50;99.90;;;;;;4958245;28;20292;-69
2021/12/09 18:03:19;;;;;;;74.05;33.97;;;2.50;99.90;;;;;;4954556;28;20669;-69
2021/12/09 18:05:46;;;;;;;81.95;36.03;;;2.50;99.90;;;;;;4963159;28;20208;-70
2021/12/09 18:08:14;;;;;;;86.30;35.42;;;2.50;99.90;;;;;;4957494;28;20683;-69
2021/12/09 18:10:47;;;;;;;80.35;37.95;;;2.50;99.90;;;;;;4957430;28;20312;-70
2021/12/09 18:13:14;;;;;;;81.00;32.30;;;2.50;99.90;;;;;;4961211;28;20236;-70
2021/12/09 18:15:44;;;;;;;73.97;31.75;;;2.50;99.90;;;;;;4969040;28;20209;-70
2021/12/09 18:18:11;;;;;;;87.90;34.72;;;2.50;99.90;;;;;;4953680;28;20212;-70
2021/12/09 18:20:39;;;;;;;74.13;37.30;;;2.50;99.90;;;;;;4954378;28;20221;-70
2021/12/09 18:23:06;;;;;;;131.32;55.08;;;2.50;99.90;;;;;;4964506;28;20205;-69
2021/12/09 18:25:33;;;;;;;102.25;45.15;;;2.50;99.90;;;;;;4953345;28;20213;-70
2021/12/09 18:28:01;;;;;;;90.97;42.10;;;2.50;99.90;;;;;;4965320;28;20201;-69
2021/12/09 18:30:30;;;;;;;92.45;42.72;;;2.50;99.90;;;;;;4952245;29;20225;-70
2021/12/09 18:33:01;;;;;;;76.03;34.00;;;2.50;99.90;;;;;;4953832;28;20667;-70